createdAt,value
2022-08-21T00:02:02.869Z,13.56
2022-08-21T00:04:30.299Z,13.85
2022-08-21T00:06:57.477Z,13.98
2022-08-21T00:09:23.959Z,13.80
2022-08-21T00:11:50.474Z,13.88
2022-08-21T00:14:17.682Z,13.60
2022-08-21T00:16:44.128Z,13.63
2022-08-21T00:19:10.646Z,13.64
2022-08-21T00:21:37.411Z,13.93
2022-08-21T00:24:04.677Z,13.88
2022-08-21T00:26:31.183Z,13.74
2022-08-21T00:28:58.407Z,13.86
2022-08-21T00:31:25.761Z,13.81
2022-08-21T00:33:52.597Z,13.73
2022-08-21T00:36:24.496Z,13.61
2022-08-21T00:38:50.925Z,13.69
2022-08-21T00:41:36.365Z,13.74
2022-08-21T00:44:05.243Z,13.63
2022-08-21T00:46:31.950Z,13.54
2022-08-21T00:48:58.891Z,13.57
2022-08-21T00:52:02.033Z,13.51
2022-08-21T00:54:31.493Z,13.40
2022-08-21T00:57:01.285Z,13.37
2022-08-21T00:59:30.413Z,13.49
2022-08-21T01:01:56.996Z,13.29
2022-08-21T01:04:23.890Z,13.21
2022-08-21T01:06:52.355Z,13.06
2022-08-21T01:09:19.866Z,13.32
2022-08-21T01:11:46.520Z,13.28
2022-08-21T01:14:15.397Z,13.13
2022-08-21T01:16:46.003Z,13.01
2022-08-21T01:19:14.731Z,13.02
2022-08-21T01:21:41.663Z,13.19
2022-08-21T01:24:11.138Z,13.09
2022-08-21T01:26:37.650Z,13.12
2022-08-21T01:29:06.800Z,13.01
2022-08-21T01:31:33.976Z,12.95
2022-08-21T01:34:01.006Z,12.84
2022-08-21T01:36:28.113Z,12.98
2022-08-21T01:38:54.700Z,13.06
2022-08-21T01:41:21.396Z,13.06
2022-08-21T01:43:47.965Z,13.03
2022-08-21T01:46:14.894Z,13.03
2022-08-21T01:48:41.722Z,12.91
2022-08-21T01:51:08.757Z,12.89
2022-08-21T01:53:37.703Z,12.73
2022-08-21T01:56:07.610Z,12.68
2022-08-21T01:58:39.867Z,12.71
2022-08-21T02:01:06.524Z,12.66
2022-08-21T02:03:35.764Z,12.56
2022-08-21T02:06:04.057Z,12.54
2022-08-21T02:08:30.732Z,12.48
2022-08-21T02:10:57.173Z,12.38
2022-08-21T02:13:23.745Z,12.22
2022-08-21T02:15:50.170Z,12.29
2022-08-21T02:18:16.817Z,12.13
2022-08-21T02:20:47.341Z,12.15
2022-08-21T02:23:15.311Z,12.13
2022-08-21T02:25:42.296Z,12.03
2022-08-21T02:28:12.269Z,12.05
2022-08-21T02:30:43.056Z,12.14
2022-08-21T02:33:11.848Z,12.19
2022-08-21T02:35:40.019Z,12.18
2022-08-21T02:38:12.861Z,12.04
2022-08-21T02:40:47.975Z,11.98
2022-08-21T02:43:16.520Z,12.01
2022-08-21T02:45:44.006Z,11.96
2022-08-21T02:48:13.401Z,11.95
2022-08-21T02:50:45.811Z,11.89
2022-08-21T02:53:17.256Z,11.86
2022-08-21T02:55:49.247Z,11.96
2022-08-21T02:58:18.666Z,11.99
2022-08-21T03:00:45.839Z,11.99
2022-08-21T03:03:13.391Z,12.03
2022-08-21T03:05:39.920Z,12.02
2022-08-21T03:08:11.880Z,11.97
2022-08-21T03:10:41.089Z,11.74
2022-08-21T03:13:08.728Z,11.67
2022-08-21T03:15:35.235Z,11.73
2022-08-21T03:18:03.348Z,11.79
2022-08-21T03:20:31.317Z,11.81
2022-08-21T03:22:57.878Z,11.76
2022-08-21T03:25:39.732Z,11.71
2022-08-21T03:28:12.851Z,11.65
2022-08-21T03:30:41.361Z,11.73
2022-08-21T03:33:07.851Z,11.80
2022-08-21T03:35:34.395Z,11.81
2022-08-21T03:38:00.923Z,11.70
2022-08-21T03:40:27.496Z,11.69
2022-08-21T03:42:54.062Z,11.80
2022-08-21T03:45:21.574Z,11.78
2022-08-21T03:47:56.773Z,11.87
2022-08-21T03:50:25.532Z,11.78
2022-08-21T03:52:52.201Z,11.92
2022-08-21T03:55:19.016Z,11.84
2022-08-21T03:57:45.574Z,11.72
2022-08-21T04:00:14.331Z,11.78
2022-08-21T04:02:41.836Z,11.71
2022-08-21T04:05:08.874Z,11.67
2022-08-21T04:07:36.395Z,11.61
2022-08-21T04:10:04.587Z,11.57
2022-08-21T04:12:31.198Z,11.55
2022-08-21T04:14:57.928Z,11.62
2022-08-21T04:17:24.350Z,11.61
2022-08-21T04:19:53.838Z,11.54
2022-08-21T04:22:20.562Z,11.45
2022-08-21T04:24:47.239Z,11.40
2022-08-21T04:27:13.688Z,11.43
2022-08-21T04:29:40.346Z,11.44
2022-08-21T04:32:07.278Z,11.50
2022-08-21T04:34:33.823Z,11.47
2022-08-21T04:37:00.324Z,11.54
2022-08-21T04:39:29.718Z,11.71
2022-08-21T04:41:56.782Z,11.73
2022-08-21T04:44:23.268Z,11.76
2022-08-21T04:46:49.796Z,11.68
2022-08-21T04:49:16.456Z,11.80
2022-08-21T04:51:43.039Z,11.78
2022-08-21T04:54:21.320Z,11.79
2022-08-21T04:57:06.546Z,11.80
2022-08-21T04:59:39.258Z,11.90
2022-08-21T05:02:09.631Z,12.01
2022-08-21T05:04:42.782Z,11.94
2022-08-21T05:07:15.520Z,12.04
2022-08-21T05:09:45.493Z,12.17
2022-08-21T05:12:13.046Z,12.24
2022-08-21T05:14:39.513Z,12.28
2022-08-21T05:17:06.183Z,12.34
2022-08-21T05:19:32.821Z,12.39
2022-08-21T05:21:59.430Z,12.57
2022-08-21T05:24:25.862Z,12.53
2022-08-21T05:26:52.326Z,12.79
2022-08-21T05:29:19.057Z,13.04
2022-08-21T05:31:46.433Z,13.69
2022-08-21T05:34:16.264Z,14.99
2022-08-21T05:36:43.768Z,16.51
2022-08-21T05:39:10.361Z,17.66
2022-08-21T05:41:36.829Z,18.67
2022-08-21T05:44:03.519Z,19.82
2022-08-21T05:46:38.151Z,20.66
2022-08-21T05:49:04.920Z,21.48
2022-08-21T05:51:32.569Z,21.91
2022-08-21T05:53:59.642Z,22.73
2022-08-21T05:56:26.228Z,22.28
2022-08-21T05:58:52.792Z,22.31
2022-08-21T06:01:19.274Z,22.48
2022-08-21T06:03:45.767Z,22.52
2022-08-21T06:06:12.286Z,24.41
2022-08-21T06:08:38.818Z,24.72
2022-08-21T06:11:07.011Z,25.86
2022-08-21T06:13:34.384Z,26.15
2022-08-21T06:16:10.150Z,27.00
2022-08-21T06:18:37.308Z,26.20
2022-08-21T06:21:04.274Z,25.99
2022-08-21T06:23:33.101Z,27.17
2022-08-21T06:26:01.386Z,27.13
2022-08-21T06:28:28.187Z,27.95
2022-08-21T06:30:54.871Z,28.23
2022-08-21T06:33:22.160Z,29.31
2022-08-21T06:35:49.237Z,29.55
2022-08-21T06:38:15.765Z,30.16
2022-08-21T06:40:43.927Z,29.87
2022-08-21T06:43:16.673Z,30.73
2022-08-21T06:45:43.715Z,31.01
2022-08-21T06:48:10.461Z,29.67
2022-08-21T06:50:37.452Z,29.44
2022-08-21T06:53:12.392Z,29.11
2022-08-21T06:55:40.376Z,30.14
2022-08-21T06:58:07.479Z,30.15
2022-08-21T07:00:35.952Z,31.91
2022-08-21T07:03:03.041Z,31.97
2022-08-21T07:05:31.088Z,31.03
2022-08-21T07:07:58.219Z,31.75
2022-08-21T07:10:26.939Z,32.45
2022-08-21T07:13:00.425Z,32.43
2022-08-21T07:15:31.287Z,32.17
2022-08-21T07:18:02.059Z,32.28
2022-08-21T07:20:30.588Z,31.93
2022-08-21T07:23:02.896Z,32.35
2022-08-21T07:25:29.541Z,32.62
2022-08-21T07:27:56.527Z,32.56
2022-08-21T07:30:23.435Z,32.61
2022-08-21T07:32:50.357Z,32.02
2022-08-21T07:35:18.410Z,32.78
2022-08-21T07:37:44.906Z,32.74
2022-08-21T07:40:11.852Z,32.83
2022-08-21T07:42:43.594Z,33.11
2022-08-21T07:45:11.966Z,32.97
2022-08-21T07:47:42.187Z,32.87
2022-08-21T07:50:12.042Z,32.73
2022-08-21T07:52:38.786Z,32.81
2022-08-21T07:55:06.786Z,32.82
2022-08-21T07:57:36.157Z,32.36
2022-08-21T08:00:05.698Z,32.74
2022-08-21T08:02:32.488Z,32.77
2022-08-21T08:05:07.570Z,32.80
2022-08-21T08:07:35.298Z,32.56
2022-08-21T08:10:03.102Z,32.70
2022-08-21T08:12:30.589Z,33.25
2022-08-21T08:14:58.957Z,33.25
2022-08-21T08:17:26.191Z,33.02
2022-08-21T08:19:52.748Z,33.19
2022-08-21T08:22:24.771Z,33.02
2022-08-21T08:24:53.193Z,32.94
2022-08-21T08:27:23.120Z,32.93
2022-08-21T08:29:50.510Z,32.91
2022-08-21T08:32:16.976Z,32.65
2022-08-21T08:34:44.145Z,32.33
2022-08-21T08:37:11.907Z,32.41
2022-08-21T08:39:39.646Z,32.49
2022-08-21T08:42:34.274Z,32.49
2022-08-21T08:45:14.481Z,32.28
2022-08-21T08:47:49.350Z,32.60
2022-08-21T08:50:37.213Z,33.02
2022-08-21T08:53:08.013Z,32.98
2022-08-21T08:55:38.352Z,32.20
2022-08-21T08:58:05.300Z,31.78
2022-08-21T09:00:32.641Z,31.38
2022-08-21T09:03:01.957Z,31.40
2022-08-21T09:05:34.681Z,31.16
2022-08-21T09:08:01.123Z,31.18
2022-08-21T09:10:46.475Z,30.85
2022-08-21T09:13:36.539Z,31.10
2022-08-21T09:16:10.819Z,30.57
2022-08-21T09:18:52.499Z,30.58
2022-08-21T09:21:33.480Z,30.50
2022-08-21T09:24:11.853Z,30.00
2022-08-21T09:26:55.334Z,29.15
2022-08-21T09:29:30.410Z,28.98
2022-08-21T09:31:57.462Z,28.99
2022-08-21T09:34:32.294Z,29.22
2022-08-21T09:36:59.173Z,29.88
2022-08-21T09:39:41.896Z,30.65
2022-08-21T09:42:11.396Z,30.64
2022-08-21T09:44:44.067Z,31.52
2022-08-21T09:47:14.853Z,32.14
2022-08-21T09:49:43.722Z,32.19
2022-08-21T09:52:28.453Z,31.90
2022-08-21T09:54:56.791Z,32.17
2022-08-21T09:57:39.332Z,32.26
2022-08-21T10:00:25.140Z,31.96
2022-08-21T10:02:51.803Z,31.83
2022-08-21T10:05:26.607Z,31.51
2022-08-21T10:07:53.544Z,31.07
2022-08-21T10:10:37.506Z,31.60
2022-08-21T10:13:25.830Z,31.91
2022-08-21T10:16:08.660Z,31.78
2022-08-21T10:18:46.689Z,32.37
2022-08-21T10:21:27.549Z,32.85
2022-08-21T10:24:24.023Z,33.73
2022-08-21T10:27:13.127Z,34.89
2022-08-21T10:29:44.793Z,35.60
2022-08-21T10:32:32.507Z,35.64
2022-08-21T10:34:58.924Z,35.76
2022-08-21T10:37:53.162Z,34.17
2022-08-21T10:40:33.049Z,34.59
2022-08-21T10:43:02.512Z,35.55
2022-08-21T10:45:28.869Z,35.97
2022-08-21T10:48:03.975Z,35.72
2022-08-21T10:50:51.656Z,36.68
2022-08-21T10:53:26.991Z,36.15
2022-08-21T10:56:03.099Z,36.42
2022-08-21T10:58:34.672Z,36.69
2022-08-21T11:01:46.286Z,36.69
2022-08-21T11:04:49.092Z,36.85
2022-08-21T11:07:46.581Z,36.43
2022-08-21T11:10:27.498Z,36.53
2022-08-21T11:13:00.352Z,36.81
2022-08-21T11:15:46.947Z,36.77
2022-08-21T11:18:28.798Z,37.53
2022-08-21T11:21:17.281Z,37.52
2022-08-21T11:24:04.398Z,37.07
2022-08-21T11:26:40.681Z,36.70
2022-08-21T11:29:16.323Z,36.52
2022-08-21T11:32:19.762Z,36.66
2022-08-21T11:35:22.204Z,34.84
2022-08-21T11:37:57.699Z,35.50
2022-08-21T11:41:00.329Z,32.88
2022-08-21T11:43:43.316Z,35.14
2022-08-21T11:46:27.107Z,36.31
2022-08-21T11:49:20.720Z,36.47
2022-08-21T11:52:10.371Z,35.97
2022-08-21T11:54:50.079Z,35.33
2022-08-21T11:57:23.684Z,34.65
2022-08-21T12:00:00.292Z,33.25
2022-08-21T12:02:32.887Z,33.58
2022-08-21T12:05:09.418Z,33.93
2022-08-21T12:07:44.032Z,34.00
2022-08-21T12:10:31.486Z,33.77
2022-08-21T12:13:09.344Z,33.19
2022-08-21T12:15:36.119Z,33.25
2022-08-21T12:18:07.838Z,32.96
2022-08-21T12:20:50.082Z,32.87
2022-08-21T12:23:25.338Z,33.35
2022-08-21T12:26:26.943Z,33.24
2022-08-21T12:29:15.013Z,32.88
2022-08-21T12:32:15.425Z,33.58
2022-08-21T12:34:51.463Z,34.02
2022-08-21T12:37:29.931Z,34.59
2022-08-21T12:40:01.612Z,34.79
2022-08-21T12:42:39.775Z,35.24
2022-08-21T12:45:21.650Z,35.40
2022-08-21T12:48:32.731Z,35.83
2022-08-21T12:51:10.669Z,36.30
2022-08-21T12:53:41.618Z,36.80
2022-08-21T12:56:14.047Z,37.09
2022-08-21T12:59:06.103Z,37.48
2022-08-21T13:01:52.898Z,36.32
2022-08-21T13:04:27.677Z,38.01
2022-08-21T13:06:56.478Z,38.68
2022-08-21T13:09:28.852Z,38.97
2022-08-21T13:11:56.411Z,38.90
2022-08-21T13:14:45.123Z,38.94
2022-08-21T13:17:12.944Z,39.01
2022-08-21T13:19:39.512Z,39.34
2022-08-21T13:22:30.889Z,38.81
2022-08-21T13:25:00.333Z,38.86
2022-08-21T13:27:32.193Z,37.87
2022-08-21T13:30:09.705Z,38.92
2022-08-21T13:32:41.654Z,34.76
2022-08-21T13:35:11.075Z,35.93
2022-08-21T13:37:41.041Z,36.55
2022-08-21T13:40:11.833Z,36.37
2022-08-21T13:42:41.945Z,35.91
2022-08-21T13:45:15.452Z,37.77
2022-08-21T13:47:42.616Z,38.12
2022-08-21T13:50:13.082Z,38.76
2022-08-21T13:52:55.170Z,39.19
2022-08-21T13:55:22.480Z,39.67
2022-08-21T13:58:00.318Z,39.22
2022-08-21T14:00:29.896Z,39.56
2022-08-21T14:03:03.857Z,39.60
2022-08-21T14:05:33.661Z,39.86
2022-08-21T14:08:30.247Z,39.49
2022-08-21T14:10:57.943Z,39.61
2022-08-21T14:13:38.220Z,39.70
2022-08-21T14:16:31.790Z,39.54
2022-08-21T14:19:03.801Z,39.46
2022-08-21T14:21:33.187Z,39.75
2022-08-21T14:24:05.183Z,39.43
2022-08-21T14:26:32.320Z,39.37
2022-08-21T14:29:01.626Z,39.43
2022-08-21T14:31:36.529Z,39.87
2022-08-21T14:34:19.231Z,39.97
2022-08-21T14:36:47.770Z,40.61
2022-08-21T14:39:14.271Z,39.16
2022-08-21T14:41:41.057Z,38.90
2022-08-21T14:44:09.642Z,39.46
2022-08-21T14:46:51.591Z,39.61
2022-08-21T14:49:28.797Z,39.68
2022-08-21T14:51:58.932Z,39.13
2022-08-21T14:54:31.928Z,39.73
2022-08-21T14:57:07.658Z,40.14
2022-08-21T14:59:34.728Z,39.55
2022-08-21T15:02:02.517Z,39.27
2022-08-21T15:04:29.003Z,40.31
2022-08-21T15:06:55.690Z,40.70
2022-08-21T15:09:22.293Z,39.95
2022-08-21T15:11:49.011Z,39.89
2022-08-21T15:14:22.413Z,39.94
2022-08-21T15:16:50.217Z,39.42
2022-08-21T15:19:17.220Z,39.18
2022-08-21T15:21:43.716Z,40.55
2022-08-21T15:24:10.496Z,40.76
2022-08-21T15:26:37.644Z,40.21
2022-08-21T15:29:07.665Z,37.24
2022-08-21T15:31:34.957Z,37.73
2022-08-21T15:34:01.800Z,36.80
2022-08-21T15:36:28.251Z,38.57
2022-08-21T15:38:54.739Z,39.29
2022-08-21T15:41:21.551Z,37.62
2022-08-21T15:43:51.041Z,35.67
2022-08-21T15:46:19.323Z,37.19
2022-08-21T15:48:47.171Z,37.90
2022-08-21T15:51:15.882Z,35.93
2022-08-21T15:53:44.274Z,32.30
2022-08-21T15:56:35.760Z,31.29
2022-08-21T15:59:06.758Z,30.69
2022-08-21T16:01:44.682Z,30.49
2022-08-21T16:04:23.105Z,28.40
2022-08-21T16:06:54.604Z,28.35
2022-08-21T16:09:23.977Z,28.95
2022-08-21T16:11:51.427Z,28.14
2022-08-21T16:14:18.061Z,28.33
2022-08-21T16:16:45.304Z,28.33
2022-08-21T16:19:13.687Z,28.52
2022-08-21T16:21:40.457Z,28.46
2022-08-21T16:24:07.156Z,28.25
2022-08-21T16:26:34.019Z,27.40
2022-08-21T16:29:01.695Z,27.21
2022-08-21T16:31:28.252Z,27.28
2022-08-21T16:33:57.856Z,27.45
2022-08-21T16:36:26.428Z,27.09
2022-08-21T16:38:54.589Z,26.94
2022-08-21T16:41:23.452Z,27.29
2022-08-21T16:43:51.747Z,27.43
2022-08-21T16:46:20.518Z,27.36
2022-08-21T16:48:47.308Z,27.30
2022-08-21T16:51:15.238Z,27.21
2022-08-21T16:53:42.851Z,27.01
2022-08-21T16:56:11.166Z,26.82
2022-08-21T16:58:40.774Z,26.70
2022-08-21T17:01:11.832Z,26.57
2022-08-21T17:03:41.522Z,26.47
2022-08-21T17:06:09.289Z,26.35
2022-08-21T17:08:36.101Z,26.24
2022-08-21T17:11:03.453Z,26.07
2022-08-21T17:13:30.787Z,26.08
2022-08-21T17:15:57.804Z,25.94
2022-08-21T17:18:26.489Z,25.91
2022-08-21T17:20:53.063Z,25.78
2022-08-21T17:23:20.255Z,25.74
2022-08-21T17:25:51.868Z,25.68
2022-08-21T17:28:25.835Z,25.58
2022-08-21T17:30:58.235Z,25.48
2022-08-21T17:33:27.235Z,25.36
2022-08-21T17:35:54.084Z,25.30
2022-08-21T17:38:20.631Z,25.26
2022-08-21T17:40:48.124Z,25.16
2022-08-21T17:43:15.788Z,25.13
2022-08-21T17:45:44.705Z,24.99
2022-08-21T17:48:13.416Z,24.86
2022-08-21T17:50:42.741Z,24.71
2022-08-21T17:53:10.032Z,24.58
2022-08-21T17:55:37.242Z,24.47
2022-08-21T17:58:04.215Z,24.28
2022-08-21T18:00:31.957Z,24.10
2022-08-21T18:03:07.503Z,23.80
2022-08-21T18:05:34.100Z,23.52
2022-08-21T18:08:00.751Z,23.39
2022-08-21T18:10:27.771Z,23.19
2022-08-21T18:12:54.915Z,23.06
2022-08-21T18:15:22.177Z,22.92
2022-08-21T18:17:50.880Z,22.67
2022-08-21T18:20:19.970Z,22.21
2022-08-21T18:22:46.918Z,22.13
2022-08-21T18:25:13.979Z,22.05
2022-08-21T18:27:43.259Z,21.90
2022-08-21T18:30:10.604Z,21.71
2022-08-21T18:32:37.182Z,21.28
2022-08-21T18:35:05.496Z,21.23
2022-08-21T18:37:32.728Z,21.11
2022-08-21T18:39:59.711Z,21.02
2022-08-21T18:42:28.829Z,20.97
2022-08-21T18:45:01.006Z,20.80
2022-08-21T18:47:37.168Z,20.70
2022-08-21T18:50:10.841Z,20.25
2022-08-21T18:52:55.091Z,20.19
2022-08-21T18:55:23.074Z,20.16
2022-08-21T18:57:51.632Z,20.23
2022-08-21T19:00:23.202Z,20.09
2022-08-21T19:02:51.728Z,19.95
2022-08-21T19:05:20.928Z,19.74
2022-08-21T19:07:50.641Z,19.55
2022-08-21T19:13:07.259Z,19.50
2022-08-21T19:15:35.626Z,19.55
2022-08-21T19:18:04.846Z,19.37
2022-08-21T19:20:36.742Z,19.00
2022-08-21T19:23:07.458Z,19.08
2022-08-21T19:25:34.617Z,18.85
2022-08-21T19:28:12.811Z,18.77
2022-08-21T19:33:34.424Z,18.62
2022-08-21T19:36:02.308Z,18.51
2022-08-21T19:38:28.806Z,18.50
2022-08-21T19:40:56.543Z,18.27
2022-08-21T19:43:24.151Z,18.27
2022-08-21T19:45:55.425Z,18.27
2022-08-21T19:48:23.712Z,17.85
2022-08-21T19:50:51.021Z,18.12
2022-08-21T19:53:19.223Z,18.04
2022-08-21T19:55:48.295Z,17.84
2022-08-21T19:58:34.658Z,17.68
2022-08-21T20:01:02.583Z,17.71
2022-08-21T20:03:29.445Z,17.77
2022-08-21T20:05:56.009Z,17.74
2022-08-21T20:08:23.374Z,17.58
2022-08-21T20:10:57.169Z,17.67
2022-08-21T20:13:25.724Z,17.51
2022-08-21T20:15:53.389Z,17.26
2022-08-21T20:18:26.998Z,17.18
2022-08-21T20:20:54.161Z,17.17
2022-08-21T20:23:30.000Z,17.13
2022-08-21T20:25:58.270Z,17.17
2022-08-21T20:28:26.198Z,17.13
2022-08-21T20:30:53.105Z,17.32
2022-08-21T20:33:19.774Z,17.31
2022-08-21T20:35:49.841Z,16.97
2022-08-21T20:38:16.953Z,16.89
2022-08-21T20:40:44.177Z,17.08
2022-08-21T20:43:14.536Z,17.02
2022-08-21T20:45:41.437Z,16.55
2022-08-21T20:48:13.922Z,16.81
2022-08-21T20:50:44.889Z,16.99
2022-08-21T20:53:43.959Z,17.07
2022-08-21T20:56:15.722Z,17.08
2022-08-21T20:58:48.508Z,17.07
2022-08-21T21:01:14.960Z,16.96
2022-08-21T21:03:50.076Z,16.86
2022-08-21T21:06:23.453Z,16.60
2022-08-21T21:09:03.933Z,16.95
2022-08-21T21:11:38.373Z,16.91
2022-08-21T21:14:11.397Z,16.68
2022-08-21T21:19:44.960Z,16.58
2022-08-21T21:22:17.203Z,16.59
2022-08-21T21:24:58.946Z,16.59
2022-08-21T21:27:55.670Z,16.37
2022-08-21T21:30:30.004Z,16.12
2022-08-21T21:32:57.267Z,16.21
2022-08-21T21:42:01.950Z,16.42
2022-08-21T21:44:36.453Z,16.28
2022-08-21T21:47:36.242Z,16.13
2022-08-21T21:50:35.110Z,16.29
2022-08-21T21:53:26.545Z,15.83
2022-08-21T21:56:27.634Z,15.98
2022-08-21T21:59:39.665Z,15.89
2022-08-21T22:02:13.064Z,15.98
2022-08-21T22:04:51.620Z,16.09
2022-08-21T22:07:25.130Z,16.02
2022-08-21T22:13:55.159Z,16.00
2022-08-21T22:16:22.277Z,16.16
2022-08-21T22:18:59.251Z,16.23
2022-08-21T22:21:36.169Z,16.33
2022-08-21T22:24:11.514Z,16.43
2022-08-21T22:26:44.320Z,16.20
2022-08-21T22:29:16.682Z,16.35
2022-08-21T22:31:44.574Z,16.19
2022-08-21T22:34:18.486Z,16.13
2022-08-21T22:36:54.710Z,16.21
2022-08-21T22:39:38.648Z,16.06
2022-08-21T22:42:13.684Z,16.18
2022-08-21T22:44:53.781Z,15.97
2022-08-21T22:47:30.030Z,15.87
2022-08-21T22:50:04.295Z,15.67
2022-08-21T22:52:37.055Z,15.70
2022-08-21T22:55:32.978Z,15.87
2022-08-21T22:58:25.024Z,15.72
2022-08-21T23:00:56.665Z,15.60
2022-08-21T23:03:32.650Z,15.76
2022-08-21T23:06:03.210Z,15.75
2022-08-21T23:08:39.616Z,15.67
2022-08-21T23:11:14.274Z,15.71
2022-08-21T23:13:44.527Z,15.58
2022-08-21T23:16:43.089Z,15.45
2022-08-21T23:19:42.896Z,15.40
2022-08-21T23:22:34.792Z,15.29
2022-08-21T23:25:32.123Z,15.24
2022-08-21T23:28:03.843Z,15.17
2022-08-21T23:30:46.372Z,15.16
2022-08-21T23:33:23.723Z,15.21
2022-08-21T23:36:21.501Z,15.25
2022-08-21T23:39:16.087Z,15.16
2022-08-21T23:42:09.891Z,14.97
2022-08-21T23:45:00.884Z,14.74
2022-08-21T23:48:12.368Z,14.57
2022-08-21T23:50:58.008Z,14.66
2022-08-21T23:53:56.239Z,14.38
2022-08-21T23:56:47.401Z,14.20
2022-08-21T23:59:36.850Z,14.40
